Pagina principale
METAR-TAF:

METAR-TAF

Aeroporti :

Aeroporto Internazionale di Gedda-Re Abd al-Aziz

Gedda, Arabia Saudita

latitudine: 21-42N, longitudine: 039-11E, altezza: 15 m

Osservazione

Il bollettino è stato emesso 1 ora e 0 minuti fa, alle 12:00 UTC
Vento 10 kt da ovest/sud-ovest
Temperature 29°C
Umidità 29%
Pressione 1013 hPa
Visibilità: 8000 m
Poco nuvoloso ad un'altezza di 4000 ft

METAR: OEJN 281200Z 24010KT 8000 FEW040 29/09 Q1013 NOSIG

Ora: 16:00 (13:00 UTC)

Previsione

Il bollettino è stato emesso 2 ore e 0 minuti fa, alle 11:00 UTC
Previsione valida dal 28 alle 12 UTC al 29 alle 18 UTC
Vento 12 kt da ovest/sud-ovest
Visibilità 10 km o più
Poco nuvoloso ad un'altezza di 4000 ft
Temporaneamente
dal 28 alle 12 UTC al 28 alle 18 UTC
Nubi sparse ad un'altezza di 4000 ft
Nubi sparse ad un'altezza di 10000 ft

TAF: OEJN 281100Z 2812/2918 24012KT 9999 FEW040 TEMPO 2812/2818 SCT040 SCT100

Osservazioni e previsioni meteorologiche di più di 4000 aeroporti (messaggi METAR e TAF).

Le stazioni disponibili sono rappresentate dai dischi gialli e rossi sulla carta.

Puntare il mouse per vedere il nome della stazione.

Clicca sopra per visualizzare le osservazioni e previsioni meteorologiche.

Per cambiare la mappa : fare clic sui pulsanti verdi con una croce nera per ingrandire, il pulsante verde con un trattino per diminuire, o sulla freccia verde per le mappe adiacenti.


METAR-TAF: